Capitol Logistics 996


FIMP
Sir Seewoosagur Ramgoolam International Airport
Mauritius, MU
FMEE
Roland Garros
St. Denis, FR

Activity Log

Date Flight Route Aircraft Duration
No Flights Yet

Route Details

Aircraft Information
Primary: Boeing 767-300BDSF
Backup: Not Available
Route Data
Distance: 125nm
Sched. Duration: 0h 25m
Avg. Duration: 0h 00m (-25m)
Times Flown: 0
Recm'd Route: Not Available
Planned Altitude: 15,000ft
Origin Wx: FIMP 280200Z 32006KT 9999 VCSH SCT016 23/21 Q1011
Dest. Wx: FMEE 280200Z AUTO 20007KT CAVOK 22/19 Q1011 NOSIG
Notes:

Financial History
Total Freight: 0lbs
Average Load: 0lbs/flt
Fuel Used: 0lbs
Avg. Fuel Used: 0lbs/flt
Fuel Expense: $0
Avg. Fuel Expense: $0
Avg. Fuel Cost: $0/lbs
Total Gross Income: $0
Pilot Pay: $0
Total Expenses: $0
Total Revenue: $0
Average Revenue: $0